CSAPA EDKO-EDLP
Flight info
| Callsign | CSAPA |
|---|---|
| Flight time | 0h 20m |
| Altitude | 2500 |
| Route | EDKO/07 HOPPECKE A44HIGHWAY HOTEL HROUTE EDLP |
| Aircraft | C152/L-V/N |
Departure
| Time | 2026-05-06 16:05 |
|---|---|
| Airport | Brilon-Hochsauerland Airfield (EDKO) |
Arrival
| Time | 2026-05-06 16:26 |
|---|---|
| Airport | Paderborn Lippstadt Airport (EDLP) |
| Time | Latitude | Longitude | Altitude | Speed | Heading |
|---|---|---|---|---|---|
| 2026-05-06 15:59 | 51.40109 | 8.64043 | 1513 ft | 0 kts | 338° |
| 2026-05-06 16:00 | 51.40109 | 8.64042 | 1513 ft | 0 kts | 338° |
| 2026-05-06 16:01 | 51.40122 | 8.64034 | 1513 ft | 8 kts | 338° |
| 2026-05-06 16:01 | 51.40129 | 8.63959 | 1513 ft | 7 kts | 251° |
| 2026-05-06 16:01 | 51.40164 | 8.63923 | 1513 ft | 11 kts | 340° |
| 2026-05-06 16:02 | 51.40197 | 8.63978 | 1513 ft | 11 kts | 72° |
| 2026-05-06 16:02 | 51.40227 | 8.64104 | 1513 ft | 13 kts | 68° |
| 2026-05-06 16:02 | 51.40264 | 8.64249 | 1513 ft | 15 kts | 68° |
| 2026-05-06 16:02 | 51.40305 | 8.64409 | 1513 ft | 16 kts | 67° |
| 2026-05-06 16:03 | 51.40345 | 8.64564 | 1513 ft | 16 kts | 67° |
| 2026-05-06 16:03 | 51.40389 | 8.64731 | 1513 ft | 12 kts | 68° |
| 2026-05-06 16:03 | 51.40410 | 8.64813 | 1513 ft | 3 kts | 110° |
| 2026-05-06 16:03 | 51.40400 | 8.64812 | 1513 ft | 5 kts | 232° |
| 2026-05-06 16:04 | 51.40373 | 8.64681 | 1513 ft | 34 kts | 247° |
| 2026-05-06 16:04 | 51.40229 | 8.64098 | 1551 ft | 70 kts | 250° |
| 2026-05-06 16:04 | 51.40042 | 8.63387 | 1742 ft | 70 kts | 232° |
| 2026-05-06 16:04 | 51.39602 | 8.63011 | 1902 ft | 74 kts | 197° |
| 2026-05-06 16:05 | 51.39109 | 8.62839 | 2090 ft | 72 kts | 172° |
| 2026-05-06 16:05 | 51.38626 | 8.63147 | 2226 ft | 78 kts | 156° |
| 2026-05-06 16:05 | 51.38172 | 8.63671 | 2368 ft | 84 kts | 123° |
| 2026-05-06 16:05 | 51.38039 | 8.64668 | 2381 ft | 97 kts | 83° |
| 2026-05-06 16:06 | 51.38262 | 8.65637 | 2484 ft | 93 kts | 66° |
| 2026-05-06 16:06 | 51.38496 | 8.66626 | 2472 ft | 98 kts | 70° |
| 2026-05-06 16:06 | 51.38737 | 8.67660 | 2472 ft | 101 kts | 69° |
| 2026-05-06 16:06 | 51.39005 | 8.68724 | 2465 ft | 104 kts | 67° |
| 2026-05-06 16:07 | 51.39295 | 8.69792 | 2453 ft | 105 kts | 66° |
| 2026-05-06 16:07 | 51.39584 | 8.70859 | 2465 ft | 104 kts | 67° |
| 2026-05-06 16:07 | 51.39868 | 8.71931 | 2463 ft | 105 kts | 67° |
| 2026-05-06 16:07 | 51.40152 | 8.73005 | 2466 ft | 104 kts | 67° |
| 2026-05-06 16:08 | 51.40437 | 8.74076 | 2468 ft | 104 kts | 66° |
| 2026-05-06 16:08 | 51.40727 | 8.75143 | 2469 ft | 105 kts | 66° |
| 2026-05-06 16:08 | 51.41013 | 8.76216 | 2470 ft | 105 kts | 67° |
| 2026-05-06 16:08 | 51.41299 | 8.77265 | 2471 ft | 105 kts | 63° |
| 2026-05-06 16:09 | 51.41704 | 8.78232 | 2474 ft | 104 kts | 52° |
| 2026-05-06 16:09 | 51.42178 | 8.79114 | 2477 ft | 104 kts | 48° |
| 2026-05-06 16:09 | 51.42652 | 8.80001 | 2470 ft | 105 kts | 51° |
| 2026-05-06 16:09 | 51.43105 | 8.80919 | 2474 ft | 105 kts | 52° |
| 2026-05-06 16:10 | 51.43540 | 8.81854 | 2472 ft | 105 kts | 54° |
| 2026-05-06 16:10 | 51.43967 | 8.82806 | 2473 ft | 105 kts | 54° |
| 2026-05-06 16:10 | 51.44382 | 8.83750 | 2472 ft | 105 kts | 55° |
| 2026-05-06 16:10 | 51.44804 | 8.84718 | 2472 ft | 105 kts | 55° |
| 2026-05-06 16:11 | 51.45218 | 8.85663 | 2472 ft | 105 kts | 54° |
| 2026-05-06 16:11 | 51.45641 | 8.86617 | 2471 ft | 105 kts | 54° |
| 2026-05-06 16:11 | 51.46099 | 8.87521 | 2474 ft | 105 kts | 47° |
| 2026-05-06 16:11 | 51.46592 | 8.88377 | 2470 ft | 105 kts | 48° |
| 2026-05-06 16:12 | 51.47078 | 8.89254 | 2469 ft | 105 kts | 49° |
| 2026-05-06 16:12 | 51.47556 | 8.90140 | 2469 ft | 105 kts | 49° |
| 2026-05-06 16:12 | 51.48031 | 8.91029 | 2467 ft | 105 kts | 49° |
| 2026-05-06 16:12 | 51.48505 | 8.91916 | 2467 ft | 105 kts | 49° |
| 2026-05-06 16:13 | 51.48985 | 8.92804 | 2466 ft | 105 kts | 49° |
| 2026-05-06 16:13 | 51.49466 | 8.93681 | 2465 ft | 105 kts | 48° |
| 2026-05-06 16:13 | 51.49965 | 8.94514 | 2461 ft | 105 kts | 38° |
| 2026-05-06 16:13 | 51.50643 | 8.94884 | 2455 ft | 105 kts | 355° |
| 2026-05-06 16:14 | 51.51273 | 8.94316 | 2413 ft | 107 kts | 310° |
| 2026-05-06 16:14 | 51.51698 | 8.93378 | 2455 ft | 103 kts | 305° |
| 2026-05-06 16:14 | 51.52120 | 8.92421 | 2430 ft | 106 kts | 305° |
| 2026-05-06 16:14 | 51.52534 | 8.91463 | 2453 ft | 104 kts | 304° |
| 2026-05-06 16:15 | 51.52941 | 8.90492 | 2435 ft | 106 kts | 303° |
| 2026-05-06 16:15 | 51.53340 | 8.89515 | 2446 ft | 104 kts | 303° |
| 2026-05-06 16:15 | 51.53732 | 8.88525 | 2441 ft | 105 kts | 301° |
| 2026-05-06 16:15 | 51.54001 | 8.87438 | 2433 ft | 105 kts | 282° |
| 2026-05-06 16:16 | 51.54095 | 8.86276 | 2440 ft | 105 kts | 274° |
| 2026-05-06 16:16 | 51.54137 | 8.85101 | 2434 ft | 105 kts | 274° |
| 2026-05-06 16:16 | 51.54215 | 8.83930 | 2429 ft | 105 kts | 277° |
| 2026-05-06 16:16 | 51.54309 | 8.82766 | 2438 ft | 104 kts | 277° |
| 2026-05-06 16:17 | 51.54400 | 8.81606 | 2428 ft | 105 kts | 277° |
| 2026-05-06 16:17 | 51.54563 | 8.80473 | 2456 ft | 102 kts | 298° |
| 2026-05-06 16:17 | 51.55101 | 8.79805 | 2478 ft | 102 kts | 345° |
| 2026-05-06 16:17 | 51.55831 | 8.79894 | 2398 ft | 108 kts | 21° |
| 2026-05-06 16:18 | 51.56413 | 8.80617 | 2385 ft | 108 kts | 52° |
| 2026-05-06 16:18 | 51.56697 | 8.81700 | 2417 ft | 103 kts | 82° |
| 2026-05-06 16:18 | 51.56632 | 8.82850 | 2371 ft | 108 kts | 107° |
| 2026-05-06 16:18 | 51.56282 | 8.83888 | 2404 ft | 104 kts | 129° |
| 2026-05-06 16:19 | 51.55696 | 8.84534 | 2406 ft | 104 kts | 169° |
| 2026-05-06 16:19 | 51.55054 | 8.84200 | 2460 ft | 101 kts | 229° |
| 2026-05-06 16:19 | 51.54964 | 8.83085 | 2282 ft | 114 kts | 290° |
| 2026-05-06 16:19 | 51.55308 | 8.81953 | 2221 ft | 105 kts | 290° |
| 2026-05-06 16:20 | 51.55490 | 8.80837 | 2136 ft | 104 kts | 281° |
| 2026-05-06 16:20 | 51.55615 | 8.79702 | 2121 ft | 102 kts | 280° |
| 2026-05-06 16:20 | 51.55743 | 8.78581 | 2117 ft | 102 kts | 281° |
| 2026-05-06 16:20 | 51.55874 | 8.77507 | 2210 ft | 96 kts | 282° |
| 2026-05-06 16:21 | 51.56018 | 8.76449 | 2224 ft | 98 kts | 283° |
| 2026-05-06 16:22 | 51.58155 | 8.72010 | 2105 ft | 101 kts | 315° |
| 2026-05-06 16:22 | 51.58647 | 8.71187 | 2081 ft | 99 kts | 307° |
| 2026-05-06 16:22 | 51.58941 | 8.70205 | 2063 ft | 100 kts | 286° |
| 2026-05-06 16:23 | 51.59147 | 8.69120 | 2046 ft | 101 kts | 293° |
| 2026-05-06 16:23 | 51.59567 | 8.68191 | 1991 ft | 105 kts | 317° |
| 2026-05-06 16:23 | 51.60158 | 8.67567 | 2000 ft | 100 kts | 334° |
| 2026-05-06 16:23 | 51.60767 | 8.67131 | 2018 ft | 93 kts | 335° |
| 2026-05-06 16:24 | 51.61329 | 8.66663 | 1968 ft | 82 kts | 331° |
| 2026-05-06 16:24 | 51.61768 | 8.66252 | 1828 ft | 69 kts | 329° |
| 2026-05-06 16:24 | 51.62168 | 8.65840 | 1622 ft | 68 kts | 315° |
| 2026-05-06 16:24 | 51.62494 | 8.65291 | 1389 ft | 70 kts | 295° |
| 2026-05-06 16:25 | 51.62561 | 8.64510 | 1117 ft | 73 kts | 245° |
| 2026-05-06 16:25 | 51.62316 | 8.63825 | 932 ft | 68 kts | 235° |
| 2026-05-06 16:25 | 51.62047 | 8.63192 | 790 ft | 69 kts | 236° |
| 2026-05-06 16:25 | 51.61790 | 8.62572 | 705 ft | 58 kts | 237° |
| 2026-05-06 16:26 | 51.61607 | 8.62127 | 702 ft | 39 kts | 236° |
| 2026-05-06 16:26 | 51.61475 | 8.61808 | 702 ft | 33 kts | 236° |
| 2026-05-06 16:26 | 51.61358 | 8.61528 | 702 ft | 27 kts | 236° |
| 2026-05-06 16:26 | 51.61257 | 8.61290 | 702 ft | 23 kts | 236° |
| 2026-05-06 16:27 | 51.61181 | 8.61106 | 702 ft | 17 kts | 236° |
| 2026-05-06 16:27 | 51.61114 | 8.61043 | 702 ft | 10 kts | 177° |
| 2026-05-06 16:27 | 51.61039 | 8.61048 | 702 ft | 8 kts | 179° |
| 2026-05-06 16:27 | 51.61016 | 8.61049 | 702 ft | 0 kts | 177° |
| 2026-05-06 16:28 | 51.61007 | 8.61050 | 702 ft | 2 kts | 165° |
| 2026-05-06 16:28 | 51.60980 | 8.61083 | 702 ft | 6 kts | 112° |
| 2026-05-06 16:29 | 51.60970 | 8.61148 | 702 ft | 5 kts | 104° |
| 2026-05-06 16:29 | 51.60966 | 8.61173 | 702 ft | 0 kts | 104° |
| 2026-05-06 16:29 | 51.60963 | 8.61189 | 702 ft | 6 kts | 104° |
| 2026-05-06 16:29 | 51.60950 | 8.61274 | 702 ft | 8 kts | 104° |
| 2026-05-06 16:30 | 51.60950 | 8.61312 | 702 ft | 0 kts | 58° |
| 2026-05-06 16:30 | 51.60953 | 8.61320 | 702 ft | 3 kts | 58° |
| 2026-05-06 16:30 | 51.60978 | 8.61386 | 702 ft | 10 kts | 58° |
| 2026-05-06 16:31 | 51.61015 | 8.61486 | 702 ft | 11 kts | 58° |
| 2026-05-06 16:31 | 51.61052 | 8.61580 | 702 ft | 10 kts | 57° |
| 2026-05-06 16:31 | 51.61088 | 8.61671 | 702 ft | 8 kts | 57° |
| 2026-05-06 16:31 | 51.61086 | 8.61727 | 702 ft | 8 kts | 149° |
| 2026-05-06 16:32 | 51.61066 | 8.61744 | 702 ft | 6 kts | 151° |
| 2026-05-06 16:32 | 51.61007 | 8.61744 | 702 ft | 10 kts | 237° |
| 2026-05-06 16:32 | 51.60996 | 8.61716 | 702 ft | 0 kts | 237° |